Sutton, Nebraska
Current Conditions -  °F | °C
As of 6:55 PM on Wednesday 17 Dec 2014 (Local Time) from KAUH Reporting Station
Overcast Overcast  
Wind Chill: 16°   Ceiling: 7000
Heat Index: 25°   Visibility: 10mi
Dew Point: 19°   Wind: 8mph
Humidity: 77%   Direction: 130°SE
Pressure: 30.19"   Gusts: NA
Location:  40.61°N, 97.86°W
Report Text: KAUH 180055Z AUTO 13007KT 10SM OVC070 M04/M07 A3019 RMK AO2 T10381073
Loading
Personal Weather Stations






























Interactive Weather Map New forecast layout! Learn more

10-Day Weather Forecast

Advertisements
Track Severe Weather on mobile